sensor_id;sensor_type;location;lat;lon;timestamp;P1;durP1;ratioP1;P2;durP2;ratioP2
15412;SDS011;7805;49.554;7.632;2023-03-14T00:01:55;2.53;;;1.30;;
15412;SDS011;7805;49.554;7.632;2023-03-14T00:04:21;2.80;;;1.30;;
15412;SDS011;7805;49.554;7.632;2023-03-14T00:06:47;6.30;;;1.27;;
15412;SDS011;7805;49.554;7.632;2023-03-14T00:09:14;6.93;;;1.67;;
15412;SDS011;7805;49.554;7.632;2023-03-14T00:11:40;4.47;;;1.47;;
15412;SDS011;7805;49.554;7.632;2023-03-14T00:14:06;5.47;;;1.67;;
15412;SDS011;7805;49.554;7.632;2023-03-14T00:16:31;2.83;;;1.50;;
15412;SDS011;7805;49.554;7.632;2023-03-14T00:19:00;6.47;;;1.50;;
15412;SDS011;7805;49.554;7.632;2023-03-14T00:21:25;4.07;;;1.47;;
15412;SDS011;7805;49.554;7.632;2023-03-14T00:23:51;4.30;;;1.47;;
15412;SDS011;7805;49.554;7.632;2023-03-14T00:26:17;2.90;;;1.20;;
15412;SDS011;7805;49.554;7.632;2023-03-14T00:28:45;6.60;;;1.80;;
15412;SDS011;7805;49.554;7.632;2023-03-14T00:31:12;3.60;;;1.60;;
15412;SDS011;7805;49.554;7.632;2023-03-14T00:33:39;4.60;;;1.33;;
15412;SDS011;7805;49.554;7.632;2023-03-14T00:36:06;3.70;;;1.33;;
15412;SDS011;7805;49.554;7.632;2023-03-14T00:38:34;5.40;;;1.60;;
15412;SDS011;7805;49.554;7.632;2023-03-14T00:41:02;4.03;;;1.23;;
15412;SDS011;7805;49.554;7.632;2023-03-14T00:43:29;5.57;;;1.47;;
15412;SDS011;7805;49.554;7.632;2023-03-14T00:45:55;5.73;;;1.80;;
15412;SDS011;7805;49.554;7.632;2023-03-14T00:48:22;5.07;;;1.60;;
15412;SDS011;7805;49.554;7.632;2023-03-14T00:50:47;3.27;;;1.40;;
15412;SDS011;7805;49.554;7.632;2023-03-14T00:53:13;2.77;;;1.63;;
15412;SDS011;7805;49.554;7.632;2023-03-14T00:55:39;3.43;;;1.40;;
15412;SDS011;7805;49.554;7.632;2023-03-14T00:58:06;2.80;;;1.33;;
15412;SDS011;7805;49.554;7.632;2023-03-14T01:00:32;4.17;;;1.50;;
15412;SDS011;7805;49.554;7.632;2023-03-14T01:02:57;2.57;;;1.30;;
15412;SDS011;7805;49.554;7.632;2023-03-14T01:05:23;3.90;;;1.53;;
15412;SDS011;7805;49.554;7.632;2023-03-14T01:07:49;5.13;;;1.60;;
15412;SDS011;7805;49.554;7.632;2023-03-14T01:10:15;7.37;;;2.17;;
15412;SDS011;7805;49.554;7.632;2023-03-14T01:12:41;3.67;;;1.57;;
15412;SDS011;7805;49.554;7.632;2023-03-14T01:15:07;3.10;;;1.23;;
15412;SDS011;7805;49.554;7.632;2023-03-14T01:17:33;4.80;;;1.70;;
15412;SDS011;7805;49.554;7.632;2023-03-14T01:19:59;4.30;;;1.50;;
15412;SDS011;7805;49.554;7.632;2023-03-14T01:22:25;5.73;;;1.87;;
15412;SDS011;7805;49.554;7.632;2023-03-14T01:24:51;5.77;;;1.37;;
15412;SDS011;7805;49.554;7.632;2023-03-14T01:27:17;8.37;;;1.33;;
15412;SDS011;7805;49.554;7.632;2023-03-14T01:29:42;6.93;;;1.63;;
15412;SDS011;7805;49.554;7.632;2023-03-14T01:32:08;9.00;;;1.77;;
15412;SDS011;7805;49.554;7.632;2023-03-14T01:34:33;5.57;;;1.50;;
15412;SDS011;7805;49.554;7.632;2023-03-14T01:36:59;5.47;;;1.83;;
15412;SDS011;7805;49.554;7.632;2023-03-14T01:39:25;3.40;;;1.47;;
15412;SDS011;7805;49.554;7.632;2023-03-14T01:41:50;4.60;;;1.63;;
15412;SDS011;7805;49.554;7.632;2023-03-14T01:44:16;5.13;;;1.60;;
15412;SDS011;7805;49.554;7.632;2023-03-14T01:46:42;4.63;;;1.50;;
15412;SDS011;7805;49.554;7.632;2023-03-14T01:49:19;3.27;;;1.40;;
15412;SDS011;7805;49.554;7.632;2023-03-14T01:52:01;4.27;;;1.43;;
15412;SDS011;7805;49.554;7.632;2023-03-14T01:59:36;3.97;;;1.53;;
15412;SDS011;7805;49.554;7.632;2023-03-14T02:02:04;4.33;;;1.60;;
15412;SDS011;7805;49.554;7.632;2023-03-14T02:04:35;5.47;;;1.43;;
15412;SDS011;7805;49.554;7.632;2023-03-14T02:09:37;3.53;;;1.50;;
15412;SDS011;7805;49.554;7.632;2023-03-14T02:12:05;4.30;;;1.40;;
15412;SDS011;7805;49.554;7.632;2023-03-14T02:14:32;4.07;;;1.47;;
15412;SDS011;7805;49.554;7.632;2023-03-14T02:17:00;5.33;;;1.50;;
15412;SDS011;7805;49.554;7.632;2023-03-14T02:22:32;4.23;;;1.70;;
15412;SDS011;7805;49.554;7.632;2023-03-14T02:25:02;6.93;;;1.63;;
15412;SDS011;7805;49.554;7.632;2023-03-14T02:27:40;6.30;;;1.40;;
15412;SDS011;7805;49.554;7.632;2023-03-14T02:30:17;4.63;;;1.20;;
15412;SDS011;7805;49.554;7.632;2023-03-14T02:32:47;6.33;;;1.40;;
15412;SDS011;7805;49.554;7.632;2023-03-14T02:35:21;4.97;;;2.03;;
15412;SDS011;7805;49.554;7.632;2023-03-14T02:37:51;5.10;;;1.40;;
15412;SDS011;7805;49.554;7.632;2023-03-14T02:40:24;2.63;;;1.40;;
15412;SDS011;7805;49.554;7.632;2023-03-14T02:42:49;4.37;;;1.80;;
15412;SDS011;7805;49.554;7.632;2023-03-14T02:47:44;6.43;;;1.47;;
15412;SDS011;7805;49.554;7.632;2023-03-14T02:50:17;5.43;;;1.70;;
15412;SDS011;7805;49.554;7.632;2023-03-14T02:52:46;1.97;;;1.20;;
15412;SDS011;7805;49.554;7.632;2023-03-14T02:55:11;3.37;;;1.40;;
15412;SDS011;7805;49.554;7.632;2023-03-14T02:57:37;6.07;;;1.70;;
15412;SDS011;7805;49.554;7.632;2023-03-14T03:00:03;5.20;;;1.50;;
15412;SDS011;7805;49.554;7.632;2023-03-14T03:02:30;7.30;;;1.40;;
15412;SDS011;7805;49.554;7.632;2023-03-14T03:04:56;6.53;;;1.73;;
15412;SDS011;7805;49.554;7.632;2023-03-14T03:07:21;3.10;;;1.10;;
15412;SDS011;7805;49.554;7.632;2023-03-14T03:09:47;6.87;;;1.70;;
15412;SDS011;7805;49.554;7.632;2023-03-14T03:12:12;3.03;;;1.37;;
15412;SDS011;7805;49.554;7.632;2023-03-14T03:14:38;5.13;;;1.20;;
15412;SDS011;7805;49.554;7.632;2023-03-14T03:17:04;2.83;;;1.30;;
15412;SDS011;7805;49.554;7.632;2023-03-14T03:19:30;5.47;;;1.10;;
15412;SDS011;7805;49.554;7.632;2023-03-14T03:21:57;4.60;;;1.30;;
15412;SDS011;7805;49.554;7.632;2023-03-14T03:24:23;5.80;;;1.60;;
15412;SDS011;7805;49.554;7.632;2023-03-14T03:26:49;2.40;;;1.10;;
15412;SDS011;7805;49.554;7.632;2023-03-14T03:29:14;4.67;;;1.43;;
15412;SDS011;7805;49.554;7.632;2023-03-14T03:31:40;3.50;;;1.57;;
15412;SDS011;7805;49.554;7.632;2023-03-14T03:34:06;3.53;;;1.47;;
15412;SDS011;7805;49.554;7.632;2023-03-14T03:36:32;4.90;;;1.77;;
15412;SDS011;7805;49.554;7.632;2023-03-14T03:38:58;3.77;;;1.17;;
15412;SDS011;7805;49.554;7.632;2023-03-14T03:41:24;5.57;;;1.30;;
15412;SDS011;7805;49.554;7.632;2023-03-14T03:43:50;2.83;;;1.10;;
15412;SDS011;7805;49.554;7.632;2023-03-14T03:46:15;3.27;;;1.20;;
15412;SDS011;7805;49.554;7.632;2023-03-14T03:48:41;5.33;;;1.47;;
15412;SDS011;7805;49.554;7.632;2023-03-14T03:51:06;4.03;;;1.30;;
15412;SDS011;7805;49.554;7.632;2023-03-14T03:53:35;6.30;;;1.60;;
15412;SDS011;7805;49.554;7.632;2023-03-14T03:56:01;6.43;;;1.63;;
15412;SDS011;7805;49.554;7.632;2023-03-14T03:58:26;3.80;;;1.57;;
15412;SDS011;7805;49.554;7.632;2023-03-14T04:00:52;6.73;;;1.77;;
15412;SDS011;7805;49.554;7.632;2023-03-14T04:03:17;4.53;;;1.63;;
15412;SDS011;7805;49.554;7.632;2023-03-14T04:05:43;4.57;;;1.10;;
15412;SDS011;7805;49.554;7.632;2023-03-14T04:08:08;4.10;;;1.40;;
15412;SDS011;7805;49.554;7.632;2023-03-14T04:10:34;6.27;;;1.67;;
15412;SDS011;7805;49.554;7.632;2023-03-14T04:13:00;5.17;;;1.50;;
15412;SDS011;7805;49.554;7.632;2023-03-14T04:15:26;4.20;;;1.60;;
15412;SDS011;7805;49.554;7.632;2023-03-14T04:17:55;6.50;;;1.70;;
15412;SDS011;7805;49.554;7.632;2023-03-14T04:20:22;6.57;;;1.70;;
15412;SDS011;7805;49.554;7.632;2023-03-14T04:22:48;5.50;;;1.60;;
15412;SDS011;7805;49.554;7.632;2023-03-14T04:25:13;3.83;;;1.57;;
15412;SDS011;7805;49.554;7.632;2023-03-14T04:27:41;6.23;;;1.50;;
15412;SDS011;7805;49.554;7.632;2023-03-14T04:30:07;4.73;;;1.60;;
15412;SDS011;7805;49.554;7.632;2023-03-14T04:32:33;5.13;;;1.60;;
15412;SDS011;7805;49.554;7.632;2023-03-14T04:34:58;4.03;;;1.23;;
15412;SDS011;7805;49.554;7.632;2023-03-14T04:37:24;5.67;;;1.47;;
15412;SDS011;7805;49.554;7.632;2023-03-14T04:39:50;5.33;;;1.47;;
15412;SDS011;7805;49.554;7.632;2023-03-14T04:42:15;2.77;;;1.13;;
15412;SDS011;7805;49.554;7.632;2023-03-14T04:44:41;5.40;;;1.47;;
15412;SDS011;7805;49.554;7.632;2023-03-14T04:47:08;2.33;;;1.27;;
15412;SDS011;7805;49.554;7.632;2023-03-14T04:49:33;4.07;;;1.37;;
15412;SDS011;7805;49.554;7.632;2023-03-14T04:51:59;6.87;;;1.87;;
15412;SDS011;7805;49.554;7.632;2023-03-14T04:54:24;3.93;;;1.50;;
15412;SDS011;7805;49.554;7.632;2023-03-14T04:56:50;2.43;;;1.20;;
15412;SDS011;7805;49.554;7.632;2023-03-14T04:59:15;7.83;;;1.50;;
15412;SDS011;7805;49.554;7.632;2023-03-14T05:01:41;5.07;;;1.70;;
15412;SDS011;7805;49.554;7.632;2023-03-14T05:04:06;3.93;;;1.63;;
15412;SDS011;7805;49.554;7.632;2023-03-14T05:06:32;5.97;;;1.70;;
15412;SDS011;7805;49.554;7.632;2023-03-14T05:08:58;4.37;;;1.93;;
15412;SDS011;7805;49.554;7.632;2023-03-14T05:11:23;2.93;;;1.60;;
15412;SDS011;7805;49.554;7.632;2023-03-14T05:13:49;4.33;;;1.50;;
15412;SDS011;7805;49.554;7.632;2023-03-14T05:16:14;4.27;;;1.20;;
15412;SDS011;7805;49.554;7.632;2023-03-14T05:18:40;3.63;;;1.70;;
15412;SDS011;7805;49.554;7.632;2023-03-14T05:21:05;3.20;;;1.30;;
15412;SDS011;7805;49.554;7.632;2023-03-14T05:23:31;6.27;;;1.37;;
15412;SDS011;7805;49.554;7.632;2023-03-14T05:25:57;3.90;;;1.40;;
15412;SDS011;7805;49.554;7.632;2023-03-14T05:28:22;7.60;;;1.53;;
15412;SDS011;7805;49.554;7.632;2023-03-14T05:30:48;3.33;;;1.23;;
15412;SDS011;7805;49.554;7.632;2023-03-14T05:33:13;3.87;;;1.20;;
15412;SDS011;7805;49.554;7.632;2023-03-14T05:35:39;5.27;;;1.30;;
15412;SDS011;7805;49.554;7.632;2023-03-14T05:38:04;5.03;;;1.50;;
15412;SDS011;7805;49.554;7.632;2023-03-14T05:40:30;3.80;;;1.57;;
15412;SDS011;7805;49.554;7.632;2023-03-14T05:42:55;4.43;;;1.13;;
15412;SDS011;7805;49.554;7.632;2023-03-14T05:45:21;5.27;;;1.43;;
15412;SDS011;7805;49.554;7.632;2023-03-14T05:47:47;3.70;;;1.23;;
15412;SDS011;7805;49.554;7.632;2023-03-14T05:50:12;2.70;;;1.20;;
15412;SDS011;7805;49.554;7.632;2023-03-14T05:52:38;4.17;;;1.20;;
15412;SDS011;7805;49.554;7.632;2023-03-14T05:55:03;3.77;;;1.20;;
15412;SDS011;7805;49.554;7.632;2023-03-14T05:57:29;2.87;;;1.73;;
15412;SDS011;7805;49.554;7.632;2023-03-14T05:59:55;2.80;;;1.20;;
15412;SDS011;7805;49.554;7.632;2023-03-14T06:02:20;3.53;;;1.20;;
15412;SDS011;7805;49.554;7.632;2023-03-14T06:04:46;5.10;;;1.60;;
15412;SDS011;7805;49.554;7.632;2023-03-14T06:07:12;4.07;;;1.20;;
15412;SDS011;7805;49.554;7.632;2023-03-14T06:09:37;2.30;;;1.20;;
15412;SDS011;7805;49.554;7.632;2023-03-14T06:12:04;3.57;;;1.17;;
15412;SDS011;7805;49.554;7.632;2023-03-14T06:14:30;2.10;;;1.27;;
15412;SDS011;7805;49.554;7.632;2023-03-14T06:16:56;5.40;;;2.43;;
15412;SDS011;7805;49.554;7.632;2023-03-14T06:19:24;7.87;;;1.60;;
15412;SDS011;7805;49.554;7.632;2023-03-14T06:21:50;3.27;;;1.00;;
15412;SDS011;7805;49.554;7.632;2023-03-14T06:24:16;5.07;;;3.37;;
15412;SDS011;7805;49.554;7.632;2023-03-14T06:26:41;5.77;;;1.63;;
15412;SDS011;7805;49.554;7.632;2023-03-14T06:29:07;3.27;;;1.60;;
15412;SDS011;7805;49.554;7.632;2023-03-14T06:31:33;3.33;;;1.37;;
15412;SDS011;7805;49.554;7.632;2023-03-14T06:33:59;4.77;;;1.10;;
15412;SDS011;7805;49.554;7.632;2023-03-14T06:36:25;4.90;;;1.30;;
15412;SDS011;7805;49.554;7.632;2023-03-14T06:38:50;4.80;;;1.50;;
15412;SDS011;7805;49.554;7.632;2023-03-14T06:41:16;4.23;;;1.20;;
15412;SDS011;7805;49.554;7.632;2023-03-14T06:43:41;5.03;;;1.10;;
15412;SDS011;7805;49.554;7.632;2023-03-14T06:46:07;7.07;;;1.67;;
15412;SDS011;7805;49.554;7.632;2023-03-14T06:48:33;4.63;;;1.37;;
15412;SDS011;7805;49.554;7.632;2023-03-14T06:50:58;5.20;;;1.47;;
15412;SDS011;7805;49.554;7.632;2023-03-14T06:53:24;3.83;;;1.43;;
15412;SDS011;7805;49.554;7.632;2023-03-14T06:55:49;6.77;;;2.60;;
15412;SDS011;7805;49.554;7.632;2023-03-14T06:58:15;5.33;;;1.73;;
15412;SDS011;7805;49.554;7.632;2023-03-14T07:00:41;6.00;;;1.70;;
15412;SDS011;7805;49.554;7.632;2023-03-14T07:03:06;3.27;;;1.77;;
15412;SDS011;7805;49.554;7.632;2023-03-14T07:05:33;6.13;;;1.30;;
15412;SDS011;7805;49.554;7.632;2023-03-14T07:07:59;3.40;;;1.00;;
15412;SDS011;7805;49.554;7.632;2023-03-14T07:10:24;3.00;;;1.20;;
15412;SDS011;7805;49.554;7.632;2023-03-14T07:12:50;2.77;;;1.30;;
15412;SDS011;7805;49.554;7.632;2023-03-14T07:15:17;2.53;;;1.00;;
15412;SDS011;7805;49.554;7.632;2023-03-14T07:17:43;5.07;;;3.40;;
15412;SDS011;7805;49.554;7.632;2023-03-14T07:20:08;3.63;;;1.60;;
15412;SDS011;7805;49.554;7.632;2023-03-14T07:22:34;5.73;;;1.60;;
15412;SDS011;7805;49.554;7.632;2023-03-14T07:25:00;7.10;;;4.27;;
15412;SDS011;7805;49.554;7.632;2023-03-14T07:27:26;6.07;;;3.47;;
15412;SDS011;7805;49.554;7.632;2023-03-14T07:29:51;4.27;;;2.87;;
15412;SDS011;7805;49.554;7.632;2023-03-14T07:32:17;4.93;;;2.40;;
15412;SDS011;7805;49.554;7.632;2023-03-14T07:34:42;4.80;;;1.80;;
15412;SDS011;7805;49.554;7.632;2023-03-14T07:37:08;4.83;;;1.40;;
15412;SDS011;7805;49.554;7.632;2023-03-14T07:39:34;5.00;;;1.40;;
15412;SDS011;7805;49.554;7.632;2023-03-14T07:42:00;9.93;;;2.00;;
15412;SDS011;7805;49.554;7.632;2023-03-14T07:44:26;1.80;;;1.67;;
15412;SDS011;7805;49.554;7.632;2023-03-14T07:46:52;2.53;;;1.17;;
15412;SDS011;7805;49.554;7.632;2023-03-14T07:49:17;1.97;;;1.30;;
15412;SDS011;7805;49.554;7.632;2023-03-14T07:51:43;3.33;;;1.37;;
15412;SDS011;7805;49.554;7.632;2023-03-14T07:54:12;3.20;;;1.40;;
15412;SDS011;7805;49.554;7.632;2023-03-14T07:56:37;2.77;;;1.20;;
15412;SDS011;7805;49.554;7.632;2023-03-14T07:59:03;2.83;;;1.70;;
15412;SDS011;7805;49.554;7.632;2023-03-14T08:01:28;4.53;;;1.20;;
15412;SDS011;7805;49.554;7.632;2023-03-14T08:03:54;1.33;;;0.90;;
15412;SDS011;7805;49.554;7.632;2023-03-14T08:06:20;1.43;;;0.90;;
15412;SDS011;7805;49.554;7.632;2023-03-14T08:08:45;2.90;;;0.90;;
15412;SDS011;7805;49.554;7.632;2023-03-14T08:11:11;2.73;;;0.97;;
15412;SDS011;7805;49.554;7.632;2023-03-14T08:13:37;2.83;;;1.00;;
15412;SDS011;7805;49.554;7.632;2023-03-14T08:16:03;2.80;;;1.07;;
15412;SDS011;7805;49.554;7.632;2023-03-14T08:18:29;5.27;;;1.10;;
15412;SDS011;7805;49.554;7.632;2023-03-14T08:20:55;1.53;;;1.07;;
15412;SDS011;7805;49.554;7.632;2023-03-14T08:23:20;1.77;;;1.03;;
15412;SDS011;7805;49.554;7.632;2023-03-14T08:25:48;3.00;;;1.30;;
15412;SDS011;7805;49.554;7.632;2023-03-14T08:28:15;2.07;;;1.20;;
15412;SDS011;7805;49.554;7.632;2023-03-14T08:30:40;1.30;;;1.23;;
15412;SDS011;7805;49.554;7.632;2023-03-14T08:33:06;2.50;;;0.90;;
15412;SDS011;7805;49.554;7.632;2023-03-14T08:35:31;3.00;;;1.10;;
15412;SDS011;7805;49.554;7.632;2023-03-14T08:37:57;3.07;;;1.27;;
15412;SDS011;7805;49.554;7.632;2023-03-14T08:40:23;1.23;;;0.80;;
15412;SDS011;7805;49.554;7.632;2023-03-14T08:42:48;2.83;;;0.90;;
15412;SDS011;7805;49.554;7.632;2023-03-14T08:45:14;0.87;;;0.87;;
15412;SDS011;7805;49.554;7.632;2023-03-14T08:47:41;2.03;;;0.87;;
15412;SDS011;7805;49.554;7.632;2023-03-14T08:50:08;1.50;;;1.03;;
15412;SDS011;7805;49.554;7.632;2023-03-14T08:52:34;4.67;;;1.60;;
15412;SDS011;7805;49.554;7.632;2023-03-14T08:55:00;1.20;;;0.90;;
15412;SDS011;7805;49.554;7.632;2023-03-14T08:57:26;2.50;;;0.90;;
15412;SDS011;7805;49.554;7.632;2023-03-14T08:59:54;0.90;;;0.90;;
15412;SDS011;7805;49.554;7.632;2023-03-14T09:02:21;2.43;;;1.40;;
15412;SDS011;7805;49.554;7.632;2023-03-14T09:04:47;2.00;;;0.80;;
15412;SDS011;7805;49.554;7.632;2023-03-14T09:07:12;2.43;;;1.03;;
15412;SDS011;7805;49.554;7.632;2023-03-14T09:09:38;1.40;;;0.80;;
15412;SDS011;7805;49.554;7.632;2023-03-14T09:12:04;1.63;;;1.00;;
15412;SDS011;7805;49.554;7.632;2023-03-14T09:14:30;4.57;;;1.10;;
15412;SDS011;7805;49.554;7.632;2023-03-14T09:16:56;2.30;;;1.67;;
15412;SDS011;7805;49.554;7.632;2023-03-14T09:19:22;1.80;;;1.70;;
15412;SDS011;7805;49.554;7.632;2023-03-14T09:21:48;1.10;;;0.83;;
15412;SDS011;7805;49.554;7.632;2023-03-14T09:24:13;1.17;;;0.93;;
15412;SDS011;7805;49.554;7.632;2023-03-14T09:26:39;1.40;;;0.90;;
15412;SDS011;7805;49.554;7.632;2023-03-14T09:29:05;1.60;;;0.80;;
15412;SDS011;7805;49.554;7.632;2023-03-14T09:31:30;1.00;;;0.90;;
15412;SDS011;7805;49.554;7.632;2023-03-14T09:33:56;1.80;;;0.93;;
15412;SDS011;7805;49.554;7.632;2023-03-14T09:36:22;0.90;;;0.90;;
15412;SDS011;7805;49.554;7.632;2023-03-14T09:38:47;2.17;;;1.00;;
15412;SDS011;7805;49.554;7.632;2023-03-14T09:44:18;1.60;;;1.00;;
15412;SDS011;7805;49.554;7.632;2023-03-14T09:46:51;1.80;;;1.00;;
15412;SDS011;7805;49.554;7.632;2023-03-14T09:49:41;2.07;;;1.00;;
15412;SDS011;7805;49.554;7.632;2023-03-14T09:52:13;1.73;;;1.10;;
15412;SDS011;7805;49.554;7.632;2023-03-14T09:54:50;1.40;;;1.30;;
15412;SDS011;7805;49.554;7.632;2023-03-14T09:57:23;0.90;;;0.90;;
15412;SDS011;7805;49.554;7.632;2023-03-14T09:59:50;1.00;;;0.90;;
15412;SDS011;7805;49.554;7.632;2023-03-14T10:02:20;2.03;;;1.37;;
15412;SDS011;7805;49.554;7.632;2023-03-14T10:04:48;1.37;;;1.27;;
15412;SDS011;7805;49.554;7.632;2023-03-14T10:07:22;3.13;;;2.30;;
15412;SDS011;7805;49.554;7.632;2023-03-14T10:09:56;2.07;;;1.30;;
15412;SDS011;7805;49.554;7.632;2023-03-14T10:12:34;0.73;;;0.63;;
15412;SDS011;7805;49.554;7.632;2023-03-14T10:15:04;0.77;;;0.77;;
15412;SDS011;7805;49.554;7.632;2023-03-14T10:17:43;2.10;;;1.20;;
15412;SDS011;7805;49.554;7.632;2023-03-14T10:20:29;1.40;;;0.70;;
15412;SDS011;7805;49.554;7.632;2023-03-14T10:25:29;1.07;;;0.90;;
15412;SDS011;7805;49.554;7.632;2023-03-14T10:27:59;0.70;;;0.70;;
15412;SDS011;7805;49.554;7.632;2023-03-14T10:32:53;1.33;;;0.80;;
15412;SDS011;7805;49.554;7.632;2023-03-14T10:35:20;0.67;;;0.67;;
15412;SDS011;7805;49.554;7.632;2023-03-14T10:37:57;0.70;;;0.60;;
15412;SDS011;7805;49.554;7.632;2023-03-14T10:40:27;0.63;;;0.60;;
15412;SDS011;7805;49.554;7.632;2023-03-14T10:42:57;1.67;;;1.57;;
15412;SDS011;7805;49.554;7.632;2023-03-14T10:47:58;1.10;;;1.10;;
15412;SDS011;7805;49.554;7.632;2023-03-14T10:50:32;0.67;;;0.67;;
15412;SDS011;7805;49.554;7.632;2023-03-14T10:53:00;0.60;;;0.60;;
15412;SDS011;7805;49.554;7.632;2023-03-14T10:55:39;0.63;;;0.63;;
15412;SDS011;7805;49.554;7.632;2023-03-14T11:00:46;0.50;;;0.40;;
15412;SDS011;7805;49.554;7.632;2023-03-14T11:03:25;1.30;;;0.60;;
15412;SDS011;7805;49.554;7.632;2023-03-14T11:05:56;0.93;;;0.33;;
15412;SDS011;7805;49.554;7.632;2023-03-14T11:20:03;0.40;;;0.40;;
15412;SDS011;7805;49.554;7.632;2023-03-14T11:22:46;0.10;;;0.10;;
15412;SDS011;7805;49.554;7.632;2023-03-14T11:30:39;0.20;;;0.20;;
15412;SDS011;7805;49.554;7.632;2023-03-14T11:39:07;0.20;;;0.20;;
15412;SDS011;7805;49.554;7.632;2023-03-14T11:41:33;0.20;;;0.20;;
15412;SDS011;7805;49.554;7.632;2023-03-14T11:44:04;0.53;;;0.37;;
15412;SDS011;7805;49.554;7.632;2023-03-14T11:47:00;0.20;;;0.20;;
15412;SDS011;7805;49.554;7.632;2023-03-14T11:49:36;0.30;;;0.30;;
15412;SDS011;7805;49.554;7.632;2023-03-14T11:52:10;0.30;;;0.30;;
15412;SDS011;7805;49.554;7.632;2023-03-14T11:54:48;0.50;;;0.50;;
15412;SDS011;7805;49.554;7.632;2023-03-14T11:57:19;0.20;;;0.20;;
15412;SDS011;7805;49.554;7.632;2023-03-14T12:02:28;0.37;;;0.37;;
15412;SDS011;7805;49.554;7.632;2023-03-14T12:10:45;0.33;;;0.33;;
15412;SDS011;7805;49.554;7.632;2023-03-14T12:13:20;1.17;;;0.40;;
15412;SDS011;7805;49.554;7.632;2023-03-14T12:15:50;0.90;;;0.60;;
15412;SDS011;7805;49.554;7.632;2023-03-14T12:18:33;0.70;;;0.70;;
15412;SDS011;7805;49.554;7.632;2023-03-14T12:21:05;0.60;;;0.60;;
15412;SDS011;7805;49.554;7.632;2023-03-14T12:23:43;0.60;;;0.60;;
15412;SDS011;7805;49.554;7.632;2023-03-14T12:49:41;1.63;;;1.17;;
15412;SDS011;7805;49.554;7.632;2023-03-14T12:52:13;2.30;;;2.10;;
15412;SDS011;7805;49.554;7.632;2023-03-14T13:00:17;2.47;;;1.40;;
15412;SDS011;7805;49.554;7.632;2023-03-14T13:02:45;1.73;;;0.83;;
15412;SDS011;7805;49.554;7.632;2023-03-14T13:05:20;1.60;;;0.70;;
15412;SDS011;7805;49.554;7.632;2023-03-14T13:12:52;1.00;;;0.87;;
15412;SDS011;7805;49.554;7.632;2023-03-14T13:17:52;1.50;;;1.00;;
15412;SDS011;7805;49.554;7.632;2023-03-14T13:20:22;2.10;;;1.00;;
15412;SDS011;7805;49.554;7.632;2023-03-14T13:22:53;1.60;;;0.80;;
15412;SDS011;7805;49.554;7.632;2023-03-14T13:25:19;1.73;;;1.23;;
15412;SDS011;7805;49.554;7.632;2023-03-14T13:27:46;1.77;;;1.17;;
15412;SDS011;7805;49.554;7.632;2023-03-14T13:32:47;1.50;;;0.63;;
15412;SDS011;7805;49.554;7.632;2023-03-14T13:35:14;5.20;;;1.00;;
15412;SDS011;7805;49.554;7.632;2023-03-14T13:37:41;2.00;;;0.97;;
15412;SDS011;7805;49.554;7.632;2023-03-14T13:40:20;3.27;;;0.90;;
15412;SDS011;7805;49.554;7.632;2023-03-14T13:42:50;1.10;;;0.80;;
15412;SDS011;7805;49.554;7.632;2023-03-14T13:45:26;1.40;;;0.87;;
15412;SDS011;7805;49.554;7.632;2023-03-14T13:47:51;2.00;;;1.33;;
15412;SDS011;7805;49.554;7.632;2023-03-14T13:50:17;1.90;;;0.90;;
15412;SDS011;7805;49.554;7.632;2023-03-14T13:52:43;3.33;;;1.03;;
15412;SDS011;7805;49.554;7.632;2023-03-14T13:55:15;1.67;;;0.70;;
15412;SDS011;7805;49.554;7.632;2023-03-14T13:57:46;1.57;;;0.80;;
15412;SDS011;7805;49.554;7.632;2023-03-14T14:00:17;3.43;;;1.00;;
15412;SDS011;7805;49.554;7.632;2023-03-14T14:02:51;0.93;;;0.80;;
15412;SDS011;7805;49.554;7.632;2023-03-14T14:05:18;1.40;;;0.70;;
15412;SDS011;7805;49.554;7.632;2023-03-14T14:07:43;0.83;;;0.40;;
15412;SDS011;7805;49.554;7.632;2023-03-14T14:10:10;1.93;;;0.60;;
15412;SDS011;7805;49.554;7.632;2023-03-14T14:12:39;1.60;;;0.60;;
15412;SDS011;7805;49.554;7.632;2023-03-14T14:15:19;0.70;;;0.70;;
15412;SDS011;7805;49.554;7.632;2023-03-14T14:17:50;0.80;;;0.50;;
15412;SDS011;7805;49.554;7.632;2023-03-14T14:20:34;0.40;;;0.40;;
15412;SDS011;7805;49.554;7.632;2023-03-14T14:23:03;3.57;;;1.00;;
15412;SDS011;7805;49.554;7.632;2023-03-14T14:25:31;0.87;;;0.60;;
15412;SDS011;7805;49.554;7.632;2023-03-14T14:27:58;0.70;;;0.70;;
15412;SDS011;7805;49.554;7.632;2023-03-14T14:30:25;3.07;;;0.73;;
15412;SDS011;7805;49.554;7.632;2023-03-14T14:33:09;1.47;;;0.90;;
15412;SDS011;7805;49.554;7.632;2023-03-14T14:35:48;1.10;;;0.87;;
15412;SDS011;7805;49.554;7.632;2023-03-14T14:38:16;0.60;;;0.60;;
15412;SDS011;7805;49.554;7.632;2023-03-14T14:40:45;1.10;;;0.90;;
15412;SDS011;7805;49.554;7.632;2023-03-14T14:43:23;0.97;;;0.57;;
15412;SDS011;7805;49.554;7.632;2023-03-14T14:45:51;2.00;;;0.50;;
15412;SDS011;7805;49.554;7.632;2023-03-14T14:48:23;1.60;;;0.50;;
15412;SDS011;7805;49.554;7.632;2023-03-14T14:50:58;1.03;;;0.80;;
15412;SDS011;7805;49.554;7.632;2023-03-14T14:53:27;1.57;;;0.50;;
15412;SDS011;7805;49.554;7.632;2023-03-14T14:56:13;2.03;;;1.00;;
15412;SDS011;7805;49.554;7.632;2023-03-14T14:58:43;1.10;;;0.70;;
15412;SDS011;7805;49.554;7.632;2023-03-14T15:03:36;2.70;;;0.80;;
15412;SDS011;7805;49.554;7.632;2023-03-14T15:06:02;1.97;;;0.70;;
15412;SDS011;7805;49.554;7.632;2023-03-14T15:08:28;1.13;;;0.70;;
15412;SDS011;7805;49.554;7.632;2023-03-14T15:10:54;1.73;;;0.77;;
15412;SDS011;7805;49.554;7.632;2023-03-14T15:13:21;1.93;;;0.70;;
15412;SDS011;7805;49.554;7.632;2023-03-14T15:15:47;0.93;;;0.60;;
15412;SDS011;7805;49.554;7.632;2023-03-14T15:18:15;1.30;;;0.70;;
15412;SDS011;7805;49.554;7.632;2023-03-14T15:20:45;1.70;;;0.87;;
15412;SDS011;7805;49.554;7.632;2023-03-14T15:23:15;2.73;;;0.90;;
15412;SDS011;7805;49.554;7.632;2023-03-14T15:25:42;3.63;;;1.00;;
15412;SDS011;7805;49.554;7.632;2023-03-14T15:28:19;1.60;;;0.70;;
15412;SDS011;7805;49.554;7.632;2023-03-14T15:30:47;2.70;;;0.80;;
15412;SDS011;7805;49.554;7.632;2023-03-14T15:33:14;2.73;;;0.80;;
15412;SDS011;7805;49.554;7.632;2023-03-14T15:35:40;3.07;;;0.90;;
15412;SDS011;7805;49.554;7.632;2023-03-14T15:38:10;2.70;;;1.00;;
15412;SDS011;7805;49.554;7.632;2023-03-14T15:40:37;4.13;;;2.00;;
15412;SDS011;7805;49.554;7.632;2023-03-14T15:43:03;1.67;;;1.10;;
15412;SDS011;7805;49.554;7.632;2023-03-14T15:45:29;5.10;;;1.77;;
15412;SDS011;7805;49.554;7.632;2023-03-14T15:47:55;2.00;;;1.30;;
15412;SDS011;7805;49.554;7.632;2023-03-14T15:50:21;3.83;;;1.40;;
15412;SDS011;7805;49.554;7.632;2023-03-14T15:52:47;4.47;;;1.40;;
15412;SDS011;7805;49.554;7.632;2023-03-14T15:55:13;2.03;;;0.80;;
15412;SDS011;7805;49.554;7.632;2023-03-14T15:57:39;2.83;;;0.60;;
15412;SDS011;7805;49.554;7.632;2023-03-14T16:00:06;1.60;;;0.90;;
15412;SDS011;7805;49.554;7.632;2023-03-14T16:02:36;2.63;;;0.87;;
15412;SDS011;7805;49.554;7.632;2023-03-14T16:05:05;3.70;;;1.20;;
15412;SDS011;7805;49.554;7.632;2023-03-14T16:07:31;2.17;;;0.70;;
15412;SDS011;7805;49.554;7.632;2023-03-14T16:09:58;1.53;;;0.80;;
15412;SDS011;7805;49.554;7.632;2023-03-14T16:12:23;1.50;;;0.40;;
15412;SDS011;7805;49.554;7.632;2023-03-14T16:14:49;3.83;;;0.93;;
15412;SDS011;7805;49.554;7.632;2023-03-14T16:17:15;2.57;;;0.87;;
15412;SDS011;7805;49.554;7.632;2023-03-14T16:19:40;1.33;;;0.73;;
15412;SDS011;7805;49.554;7.632;2023-03-14T16:22:06;2.87;;;0.80;;
15412;SDS011;7805;49.554;7.632;2023-03-14T16:24:31;2.50;;;0.60;;
15412;SDS011;7805;49.554;7.632;2023-03-14T16:26:57;2.50;;;0.93;;
15412;SDS011;7805;49.554;7.632;2023-03-14T16:29:23;2.70;;;1.00;;
15412;SDS011;7805;49.554;7.632;2023-03-14T16:31:48;2.47;;;0.60;;
15412;SDS011;7805;49.554;7.632;2023-03-14T16:34:14;1.80;;;0.77;;
15412;SDS011;7805;49.554;7.632;2023-03-14T16:36:39;2.13;;;1.00;;
15412;SDS011;7805;49.554;7.632;2023-03-14T16:39:05;3.43;;;1.10;;
15412;SDS011;7805;49.554;7.632;2023-03-14T16:41:30;2.73;;;0.90;;
15412;SDS011;7805;49.554;7.632;2023-03-14T16:43:57;1.70;;;1.20;;